createdAt,value
2018-12-18T00:02:08.365Z,65.60
2018-12-18T00:04:41.502Z,63.57
2018-12-18T00:07:14.369Z,60.60
2018-12-18T00:09:46.204Z,59.30
2018-12-18T00:12:17.103Z,61.60
2018-12-18T00:14:48.090Z,57.13
2018-12-18T00:17:19.451Z,57.07
2018-12-18T00:19:51.175Z,56.40
2018-12-18T00:22:23.373Z,54.00
2018-12-18T00:24:54.725Z,55.80
2018-12-18T00:27:25.793Z,55.33
2018-12-18T00:29:57.051Z,51.57
2018-12-18T00:35:06.191Z,52.23
2018-12-18T00:37:38.367Z,49.30
2018-12-18T00:40:09.473Z,50.63
2018-12-18T00:42:39.760Z,49.47
2018-12-18T00:47:48.599Z,47.83
2018-12-18T00:50:19.465Z,45.73
2018-12-18T00:52:50.793Z,45.67
2018-12-18T00:55:21.901Z,45.33
2018-12-18T00:57:53.303Z,44.47
2018-12-18T01:02:59.834Z,43.77
2018-12-18T01:05:32.278Z,42.17
2018-12-18T01:08:02.957Z,44.20
2018-12-18T01:10:34.392Z,39.90
2018-12-18T01:13:05.071Z,37.67
2018-12-18T01:15:36.491Z,40.93
2018-12-18T01:18:08.605Z,40.57
2018-12-18T01:20:40.869Z,40.50
2018-12-18T01:23:11.669Z,41.10
2018-12-18T01:28:21.435Z,45.57
2018-12-18T01:30:53.405Z,48.87
2018-12-18T01:33:23.372Z,50.57
2018-12-18T01:38:30.721Z,52.07
2018-12-18T01:41:02.008Z,52.57
2018-12-18T01:43:34.249Z,53.10
2018-12-18T01:46:04.969Z,53.00
2018-12-18T01:48:36.011Z,53.17
2018-12-18T01:51:07.286Z,52.23
2018-12-18T01:53:41.199Z,56.63
2018-12-18T01:56:12.746Z,54.33
2018-12-18T01:58:44.267Z,55.27
2018-12-18T02:01:19.856Z,54.38
2018-12-18T02:06:27.596Z,54.77
2018-12-18T02:08:59.075Z,53.17
2018-12-18T02:11:30.937Z,53.03
2018-12-18T02:14:03.173Z,51.83
2018-12-18T02:16:34.416Z,53.13
2018-12-18T02:19:06.306Z,51.43
2018-12-18T02:21:38.332Z,51.33
2018-12-18T02:24:09.262Z,46.27
2018-12-18T02:29:16.487Z,42.43
2018-12-18T02:31:48.310Z,42.10
2018-12-18T02:34:20.056Z,44.88
2018-12-18T02:36:51.172Z,42.00
2018-12-18T02:39:22.212Z,42.60
2018-12-18T02:41:53.675Z,43.37
2018-12-18T02:44:24.821Z,44.53
2018-12-18T02:46:57.417Z,44.15
2018-12-18T02:49:28.571Z,43.43
2018-12-18T02:52:00.169Z,42.87
2018-12-18T02:54:32.154Z,44.63
2018-12-18T02:59:41.528Z,43.67
2018-12-18T03:02:12.466Z,44.63
2018-12-18T03:07:35.458Z,44.00
2018-12-18T03:10:10.790Z,45.04
2018-12-18T03:12:42.785Z,47.47
2018-12-18T03:15:14.810Z,46.37
2018-12-18T03:20:22.944Z,46.63
2018-12-18T03:22:53.735Z,45.97
2018-12-18T03:25:25.918Z,44.05
2018-12-18T03:27:58.190Z,45.33
2018-12-18T03:30:32.513Z,48.93
2018-12-18T03:33:04.319Z,48.03
2018-12-18T03:35:34.500Z,49.63
2018-12-18T03:38:05.302Z,49.50
2018-12-18T03:40:37.719Z,48.13
2018-12-18T03:43:10.090Z,47.97
2018-12-18T03:45:41.464Z,47.27
2018-12-18T03:48:13.221Z,44.50
2018-12-18T03:50:44.739Z,45.27
2018-12-18T03:55:52.318Z,45.53
2018-12-18T03:58:23.530Z,49.27
2018-12-18T04:00:53.890Z,44.90
2018-12-18T04:03:25.721Z,47.88
2018-12-18T04:05:57.441Z,44.63
2018-12-18T04:08:28.269Z,45.60
2018-12-18T04:10:59.349Z,45.07
2018-12-18T04:13:29.869Z,46.35
2018-12-18T04:16:01.578Z,46.68
2018-12-18T04:18:35.637Z,44.88
2018-12-18T04:21:07.113Z,42.60
2018-12-18T04:23:39.838Z,43.73
2018-12-18T04:26:11.077Z,44.85
2018-12-18T04:28:41.941Z,45.40
2018-12-18T04:31:14.035Z,44.50
2018-12-18T04:33:45.201Z,44.03
2018-12-18T04:36:16.659Z,43.90
2018-12-18T04:38:47.585Z,43.10
2018-12-18T04:41:19.542Z,45.05
2018-12-18T04:43:50.758Z,46.97
2018-12-18T04:46:22.292Z,47.97
2018-12-18T04:48:53.763Z,44.33
2018-12-18T04:51:24.960Z,47.88
2018-12-18T04:53:58.942Z,47.13
2018-12-18T04:56:30.351Z,49.27
2018-12-18T04:59:01.072Z,43.83
2018-12-18T05:01:35.113Z,44.47
2018-12-18T05:04:07.304Z,45.83
2018-12-18T05:06:38.569Z,45.80
2018-12-18T05:09:10.610Z,45.70
2018-12-18T05:11:42.045Z,46.27
2018-12-18T05:14:15.853Z,45.78
2018-12-18T05:16:47.169Z,47.93
2018-12-18T05:19:18.267Z,49.07
2018-12-18T05:21:51.007Z,46.67
2018-12-18T05:24:25.131Z,45.17
2018-12-18T05:26:56.517Z,44.33
2018-12-18T05:29:26.993Z,42.00
2018-12-18T05:31:58.109Z,41.43
2018-12-18T05:34:30.010Z,43.73
2018-12-18T05:37:00.536Z,42.40
2018-12-18T05:39:30.640Z,43.13
2018-12-18T05:42:01.821Z,42.00
2018-12-18T05:44:32.425Z,41.43
2018-12-18T05:47:02.453Z,43.30
2018-12-18T05:52:11.869Z,44.00
2018-12-18T05:54:42.362Z,46.50
2018-12-18T05:57:14.473Z,46.23
2018-12-18T05:59:44.746Z,50.90
2018-12-18T06:02:15.374Z,50.80
2018-12-18T06:04:46.862Z,50.27
2018-12-18T06:07:18.607Z,51.93
2018-12-18T06:09:49.749Z,54.50
2018-12-18T06:12:22.626Z,56.30
2018-12-18T06:14:53.922Z,54.53
2018-12-18T06:17:29.066Z,53.97
2018-12-18T06:20:00.380Z,54.43
2018-12-18T06:22:31.607Z,55.87
2018-12-18T06:25:03.131Z,57.83
2018-12-18T06:30:11.806Z,56.23
2018-12-18T06:32:42.023Z,56.53
2018-12-18T06:35:12.357Z,58.48
2018-12-18T06:37:42.560Z,55.93
2018-12-18T06:40:12.866Z,59.47
2018-12-18T06:42:42.929Z,60.03
2018-12-18T06:47:49.919Z,60.20
2018-12-18T06:50:20.991Z,61.67
2018-12-18T06:52:52.217Z,60.17
2018-12-18T06:55:22.329Z,62.48
2018-12-18T06:57:52.626Z,63.60
2018-12-18T07:00:22.980Z,63.97
2018-12-18T07:02:53.534Z,63.93
2018-12-18T07:05:23.581Z,61.40
2018-12-18T07:07:57.444Z,63.43
2018-12-18T07:10:25.971Z,60.93
2018-12-18T07:12:56.105Z,60.17
2018-12-18T07:15:26.133Z,62.70
2018-12-18T07:17:57.313Z,59.90
2018-12-18T07:20:28.123Z,61.02
2018-12-18T07:22:58.526Z,63.20
2018-12-18T07:25:28.746Z,62.10
2018-12-18T07:27:58.896Z,64.93
2018-12-18T07:30:29.121Z,63.03
2018-12-18T07:32:59.687Z,60.97
2018-12-18T07:35:29.729Z,62.53
2018-12-18T07:37:59.749Z,62.00
2018-12-18T07:40:29.832Z,63.00
2018-12-18T07:43:00.132Z,65.33
2018-12-18T07:45:30.260Z,69.57
2018-12-18T07:48:00.511Z,68.67
2018-12-18T07:50:30.538Z,69.85
2018-12-18T07:53:01.331Z,72.80
2018-12-18T07:55:31.971Z,69.92
2018-12-18T07:58:02.315Z,72.13
2018-12-18T08:00:35.243Z,74.83
2018-12-18T08:03:05.712Z,68.73
2018-12-18T08:05:39.812Z,70.17
2018-12-18T08:08:09.978Z,72.92
2018-12-18T08:10:39.928Z,74.03
2018-12-18T08:13:10.041Z,71.07
2018-12-18T08:15:40.033Z,71.77
2018-12-18T08:18:10.068Z,66.45
2018-12-18T08:20:40.050Z,67.92
2018-12-18T08:23:10.220Z,69.47
2018-12-18T08:25:40.350Z,72.63
2018-12-18T08:28:10.646Z,68.70
2018-12-18T08:30:40.793Z,71.57
2018-12-18T08:33:10.861Z,69.30
2018-12-18T08:35:41.013Z,72.23
2018-12-18T08:38:12.007Z,72.90
2018-12-18T08:40:42.416Z,71.37
2018-12-18T08:43:12.646Z,75.20
2018-12-18T08:45:42.717Z,70.10
2018-12-18T08:48:12.889Z,72.70
2018-12-18T08:50:44.399Z,71.10
2018-12-18T08:53:14.441Z,65.20
2018-12-18T08:55:44.599Z,69.17
2018-12-18T08:58:15.713Z,75.40
2018-12-18T09:00:46.074Z,81.33
2018-12-18T09:03:17.341Z,84.52
2018-12-18T09:05:47.670Z,81.00
2018-12-18T09:08:18.104Z,84.27
2018-12-18T09:10:48.886Z,78.77
2018-12-18T09:13:19.103Z,78.83
2018-12-18T09:15:54.313Z,79.60
2018-12-18T09:18:24.454Z,81.00
2018-12-18T09:20:54.697Z,76.20
2018-12-18T09:23:25.058Z,76.80
2018-12-18T09:25:55.493Z,72.53
2018-12-18T09:28:25.532Z,77.30
2018-12-18T09:30:56.019Z,75.93
2018-12-18T09:33:26.342Z,71.65
2018-12-18T09:35:56.458Z,77.70
2018-12-18T09:38:31.831Z,80.23
2018-12-18T09:41:06.965Z,77.60
2018-12-18T09:43:42.859Z,82.87
2018-12-18T09:46:12.931Z,79.97
2018-12-18T09:48:43.071Z,82.20
2018-12-18T09:51:13.321Z,82.97
2018-12-18T09:53:43.536Z,80.57
2018-12-18T09:56:13.728Z,81.92
2018-12-18T09:58:44.021Z,73.93
2018-12-18T10:01:14.320Z,75.65
2018-12-18T10:03:44.547Z,75.10
2018-12-18T17:03:14.335Z,162.07
2018-12-18T17:05:44.452Z,164.03
2018-12-18T17:08:14.555Z,165.57
2018-12-18T17:10:44.676Z,165.43
2018-12-18T17:13:15.055Z,166.07
2018-12-18T17:15:45.239Z,166.93
2018-12-18T17:18:19.073Z,167.30
2018-12-18T17:20:49.456Z,171.30
2018-12-18T17:23:20.303Z,176.40
2018-12-18T17:25:50.508Z,182.60
2018-12-18T17:28:20.533Z,186.10
2018-12-18T17:30:51.503Z,184.17
2018-12-18T17:33:22.391Z,196.97
2018-12-18T17:35:53.034Z,199.00
2018-12-18T17:38:23.092Z,194.95
2018-12-18T17:40:53.468Z,195.30
2018-12-18T17:43:24.836Z,189.27
2018-12-18T17:45:55.067Z,186.13
2018-12-18T17:48:25.288Z,199.73
2018-12-18T17:50:55.649Z,179.80
2018-12-18T17:53:26.090Z,178.83
2018-12-18T17:55:56.160Z,190.47
2018-12-18T18:01:04.684Z,190.10
2018-12-18T18:03:35.463Z,187.20
2018-12-18T18:06:06.908Z,191.70
2018-12-18T18:08:37.336Z,202.53
2018-12-18T18:11:08.547Z,204.57
2018-12-18T18:13:38.695Z,198.83
2018-12-18T18:16:08.849Z,211.63
2018-12-18T18:18:39.128Z,213.93
2018-12-18T18:21:09.564Z,208.43
2018-12-18T18:23:40.324Z,206.73
2018-12-18T18:26:12.776Z,210.20
2018-12-18T18:28:43.302Z,207.40
2018-12-18T18:31:13.398Z,210.55
2018-12-18T18:33:44.221Z,211.23
2018-12-18T18:36:15.210Z,208.37
2018-12-18T18:38:46.187Z,207.50
2018-12-18T18:41:17.408Z,213.68
2018-12-18T18:43:47.613Z,209.43
2018-12-18T18:46:18.566Z,206.02
2018-12-18T18:48:48.939Z,204.63
2018-12-18T18:51:19.188Z,217.57
2018-12-18T18:53:50.081Z,211.30
2018-12-18T18:56:20.601Z,216.00
2018-12-18T18:58:50.884Z,217.13
2018-12-18T19:01:21.070Z,209.40
2018-12-18T19:03:51.516Z,214.73
2018-12-18T19:06:22.146Z,213.93
2018-12-18T19:08:52.573Z,218.20
2018-12-18T19:11:23.201Z,217.13
2018-12-18T19:13:53.478Z,209.03
2018-12-18T19:16:25.147Z,205.40
2018-12-18T19:18:55.975Z,199.10
2018-12-18T19:21:26.260Z,204.37
2018-12-18T19:23:56.732Z,200.60
2018-12-18T19:26:26.972Z,199.33
2018-12-18T19:28:57.494Z,197.03
2018-12-18T19:31:28.197Z,215.53
2018-12-18T19:33:59.152Z,206.73
2018-12-18T19:39:08.910Z,204.60
2018-12-18T19:41:41.558Z,195.87
2018-12-18T19:44:12.968Z,200.55
2018-12-18T19:46:43.150Z,201.00
2018-12-18T19:49:14.153Z,188.43
2018-12-18T19:51:44.853Z,194.93
2018-12-18T19:54:15.289Z,192.47
2018-12-18T19:56:45.788Z,186.73
2018-12-18T19:59:16.387Z,189.03
2018-12-18T20:01:47.559Z,180.27
2018-12-18T20:04:18.858Z,185.97
2018-12-18T20:06:49.505Z,177.03
2018-12-18T20:09:20.665Z,180.63
2018-12-18T20:11:51.039Z,179.07
2018-12-18T20:14:21.376Z,175.37
2018-12-18T20:16:51.522Z,177.27
2018-12-18T20:19:26.130Z,167.27
2018-12-18T20:21:57.158Z,169.73
2018-12-18T20:24:27.774Z,171.10
2018-12-18T20:26:57.907Z,173.63
2018-12-18T20:29:28.253Z,167.50
2018-12-18T20:31:58.466Z,172.17
2018-12-18T20:34:28.702Z,166.00
2018-12-18T20:36:58.919Z,159.63
2018-12-18T20:39:30.024Z,174.93
2018-12-18T20:42:01.000Z,173.80
2018-12-18T20:44:31.874Z,176.15
2018-12-18T20:47:02.011Z,187.13
2018-12-18T20:49:32.557Z,188.62
2018-12-18T20:52:04.541Z,195.57
2018-12-18T20:54:38.758Z,195.80
2018-12-18T20:57:12.332Z,197.10
2018-12-18T20:59:43.555Z,176.47
2018-12-18T21:02:14.062Z,187.75
2018-12-18T21:04:44.645Z,185.47
2018-12-18T21:07:14.963Z,183.72
2018-12-18T21:09:45.461Z,188.53
2018-12-18T21:12:16.053Z,190.20
2018-12-18T21:14:47.444Z,182.17
2018-12-18T21:17:17.613Z,186.33
2018-12-18T21:19:47.812Z,179.00
2018-12-18T21:22:18.215Z,181.85
2018-12-18T21:24:48.335Z,176.77
2018-12-18T21:27:19.147Z,190.13
2018-12-18T21:29:49.481Z,183.43
2018-12-18T21:32:19.653Z,187.37
2018-12-18T21:34:50.007Z,182.17
2018-12-18T21:37:21.268Z,187.07
2018-12-18T21:39:51.464Z,174.50
2018-12-18T21:42:23.266Z,172.70
2018-12-18T21:44:54.131Z,172.60
2018-12-18T21:47:26.231Z,173.23
2018-12-18T21:49:56.749Z,170.83
2018-12-18T21:52:27.845Z,162.77
2018-12-18T21:54:57.961Z,168.27
2018-12-18T21:57:28.080Z,163.47
2018-12-18T21:59:59.470Z,165.60
2018-12-18T22:02:29.764Z,179.27
2018-12-18T22:05:00.084Z,175.83
2018-12-18T22:07:31.009Z,178.50
2018-12-18T22:10:02.128Z,182.47
2018-12-18T22:12:32.799Z,189.13
2018-12-18T22:15:02.996Z,181.07
2018-12-18T22:17:33.837Z,173.00
2018-12-18T22:20:04.622Z,171.27
2018-12-18T22:25:12.259Z,150.97
2018-12-18T22:27:43.733Z,146.63
2018-12-18T22:30:14.668Z,141.90
2018-12-18T22:32:44.832Z,145.27
2018-12-18T22:35:15.032Z,140.97
2018-12-18T22:37:46.172Z,140.40
2018-12-18T22:40:16.657Z,143.17
2018-12-18T22:42:47.130Z,138.70
2018-12-18T22:45:18.175Z,139.80
2018-12-18T22:47:48.642Z,144.40
2018-12-18T22:50:18.854Z,144.17
2018-12-18T22:52:49.182Z,135.65
2018-12-18T22:55:21.200Z,140.40
2018-12-18T22:57:51.759Z,142.23
2018-12-18T23:01:28.763Z,142.22
2018-12-18T23:03:59.184Z,148.03
2018-12-18T23:06:31.317Z,148.40
2018-12-18T23:09:01.806Z,146.00
2018-12-18T23:11:32.032Z,142.27
2018-12-18T23:14:02.232Z,145.67
2018-12-18T23:16:33.369Z,139.60
2018-12-18T23:19:04.119Z,140.53
2018-12-18T23:21:35.027Z,144.50
2018-12-18T23:24:05.924Z,138.10
2018-12-18T23:26:37.306Z,141.53
2018-12-18T23:29:07.551Z,138.37
2018-12-18T23:31:38.226Z,139.63
2018-12-18T23:34:08.337Z,136.00
2018-12-18T23:36:38.785Z,136.40
2018-12-18T23:39:09.160Z,143.63
2018-12-18T23:41:41.689Z,142.13
2018-12-18T23:44:12.461Z,134.60
2018-12-18T23:46:42.714Z,132.87
2018-12-18T23:49:13.198Z,149.10
2018-12-18T23:51:43.449Z,194.97
2018-12-18T23:54:20.366Z,140.27
2018-12-18T23:56:51.037Z,146.23
2018-12-18T23:59:21.371Z,152.97
